sensor_id;sensor_type;location;lat;lon;timestamp;P1;durP1;ratioP1;P2;durP2;ratioP2
12884;SDS011;6510;51.362;7.370;2023-07-13T00:01:30;0.00;;;0.00;;
12884;SDS011;6510;51.362;7.370;2023-07-13T00:03:57;0.00;;;0.00;;
12884;SDS011;6510;51.362;7.370;2023-07-13T00:06:23;0.00;;;0.00;;
12884;SDS011;6510;51.362;7.370;2023-07-13T00:08:48;0.10;;;0.10;;
12884;SDS011;6510;51.362;7.370;2023-07-13T00:11:15;0.00;;;0.00;;
12884;SDS011;6510;51.362;7.370;2023-07-13T00:13:42;0.10;;;0.10;;
12884;SDS011;6510;51.362;7.370;2023-07-13T00:16:08;0.00;;;0.00;;
12884;SDS011;6510;51.362;7.370;2023-07-13T00:18:35;0.00;;;0.00;;
12884;SDS011;6510;51.362;7.370;2023-07-13T00:21:02;0.10;;;0.10;;
12884;SDS011;6510;51.362;7.370;2023-07-13T00:23:31;0.00;;;0.00;;
12884;SDS011;6510;51.362;7.370;2023-07-13T00:26:01;0.10;;;0.10;;
12884;SDS011;6510;51.362;7.370;2023-07-13T00:28:28;0.00;;;0.00;;
12884;SDS011;6510;51.362;7.370;2023-07-13T00:30:53;0.03;;;0.03;;
12884;SDS011;6510;51.362;7.370;2023-07-13T00:33:19;0.10;;;0.10;;
12884;SDS011;6510;51.362;7.370;2023-07-13T00:35:45;0.00;;;0.00;;
12884;SDS011;6510;51.362;7.370;2023-07-13T00:38:11;0.00;;;0.00;;
12884;SDS011;6510;51.362;7.370;2023-07-13T00:40:37;0.10;;;0.10;;
12884;SDS011;6510;51.362;7.370;2023-07-13T00:43:04;0.00;;;0.00;;
12884;SDS011;6510;51.362;7.370;2023-07-13T00:48:10;0.10;;;0.10;;
12884;SDS011;6510;51.362;7.370;2023-07-13T00:50:42;0.10;;;0.10;;
12884;SDS011;6510;51.362;7.370;2023-07-13T00:53:09;0.00;;;0.00;;
12884;SDS011;6510;51.362;7.370;2023-07-13T00:55:36;0.10;;;0.10;;
12884;SDS011;6510;51.362;7.370;2023-07-13T00:58:02;0.00;;;0.00;;
12884;SDS011;6510;51.362;7.370;2023-07-13T01:00:30;0.10;;;0.10;;
12884;SDS011;6510;51.362;7.370;2023-07-13T01:02:55;0.00;;;0.00;;
12884;SDS011;6510;51.362;7.370;2023-07-13T01:05:22;0.10;;;0.10;;
12884;SDS011;6510;51.362;7.370;2023-07-13T01:07:49;0.00;;;0.00;;
12884;SDS011;6510;51.362;7.370;2023-07-13T01:10:17;0.10;;;0.10;;
12884;SDS011;6510;51.362;7.370;2023-07-13T01:12:46;0.00;;;0.00;;
12884;SDS011;6510;51.362;7.370;2023-07-13T01:18:09;0.10;;;0.10;;
12884;SDS011;6510;51.362;7.370;2023-07-13T01:20:37;0.00;;;0.00;;
12884;SDS011;6510;51.362;7.370;2023-07-13T01:23:07;0.00;;;0.00;;
12884;SDS011;6510;51.362;7.370;2023-07-13T01:25:34;0.10;;;0.10;;
12884;SDS011;6510;51.362;7.370;2023-07-13T01:28:02;0.00;;;0.00;;
12884;SDS011;6510;51.362;7.370;2023-07-13T01:30:29;0.03;;;0.03;;
12884;SDS011;6510;51.362;7.370;2023-07-13T01:32:54;0.00;;;0.00;;
12884;SDS011;6510;51.362;7.370;2023-07-13T01:35:20;0.10;;;0.10;;
12884;SDS011;6510;51.362;7.370;2023-07-13T01:37:46;0.10;;;0.10;;
12884;SDS011;6510;51.362;7.370;2023-07-13T01:40:11;0.00;;;0.00;;
12884;SDS011;6510;51.362;7.370;2023-07-13T01:42:37;0.10;;;0.10;;
12884;SDS011;6510;51.362;7.370;2023-07-13T01:45:03;0.00;;;0.00;;
12884;SDS011;6510;51.362;7.370;2023-07-13T01:47:29;0.10;;;0.10;;
12884;SDS011;6510;51.362;7.370;2023-07-13T01:49:56;0.10;;;0.10;;
12884;SDS011;6510;51.362;7.370;2023-07-13T01:52:22;0.00;;;0.00;;
12884;SDS011;6510;51.362;7.370;2023-07-13T01:54:48;0.03;;;0.03;;
12884;SDS011;6510;51.362;7.370;2023-07-13T01:57:13;0.00;;;0.00;;
12884;SDS011;6510;51.362;7.370;2023-07-13T01:59:39;0.00;;;0.00;;
12884;SDS011;6510;51.362;7.370;2023-07-13T02:02:07;0.10;;;0.10;;
12884;SDS011;6510;51.362;7.370;2023-07-13T02:04:32;0.00;;;0.00;;
12884;SDS011;6510;51.362;7.370;2023-07-13T02:06:58;0.00;;;0.00;;
12884;SDS011;6510;51.362;7.370;2023-07-13T02:09:24;0.10;;;0.10;;
12884;SDS011;6510;51.362;7.370;2023-07-13T02:11:49;0.03;;;0.03;;
12884;SDS011;6510;51.362;7.370;2023-07-13T02:14:15;0.03;;;0.03;;
12884;SDS011;6510;51.362;7.370;2023-07-13T02:16:41;0.10;;;0.10;;
12884;SDS011;6510;51.362;7.370;2023-07-13T02:19:07;0.00;;;0.00;;
12884;SDS011;6510;51.362;7.370;2023-07-13T02:21:34;0.00;;;0.00;;
12884;SDS011;6510;51.362;7.370;2023-07-13T02:23:59;0.00;;;0.00;;
12884;SDS011;6510;51.362;7.370;2023-07-13T02:26:26;0.03;;;0.03;;
12884;SDS011;6510;51.362;7.370;2023-07-13T02:28:52;0.00;;;0.00;;
12884;SDS011;6510;51.362;7.370;2023-07-13T02:31:17;0.00;;;0.00;;
12884;SDS011;6510;51.362;7.370;2023-07-13T02:33:43;0.00;;;0.00;;
12884;SDS011;6510;51.362;7.370;2023-07-13T02:36:09;0.00;;;0.00;;
12884;SDS011;6510;51.362;7.370;2023-07-13T02:38:36;0.00;;;0.00;;
12884;SDS011;6510;51.362;7.370;2023-07-13T02:41:06;0.00;;;0.00;;
12884;SDS011;6510;51.362;7.370;2023-07-13T02:43:33;0.10;;;0.10;;
12884;SDS011;6510;51.362;7.370;2023-07-13T02:45:59;0.00;;;0.00;;
12884;SDS011;6510;51.362;7.370;2023-07-13T02:48:34;0.00;;;0.00;;
12884;SDS011;6510;51.362;7.370;2023-07-13T02:51:03;0.00;;;0.00;;
12884;SDS011;6510;51.362;7.370;2023-07-13T02:53:29;0.00;;;0.00;;
12884;SDS011;6510;51.362;7.370;2023-07-13T02:55:55;0.00;;;0.00;;
12884;SDS011;6510;51.362;7.370;2023-07-13T02:58:21;0.00;;;0.00;;
12884;SDS011;6510;51.362;7.370;2023-07-13T03:00:47;0.10;;;0.10;;
12884;SDS011;6510;51.362;7.370;2023-07-13T03:03:15;0.00;;;0.00;;
12884;SDS011;6510;51.362;7.370;2023-07-13T03:05:41;0.00;;;0.00;;
12884;SDS011;6510;51.362;7.370;2023-07-13T03:08:08;0.10;;;0.10;;
12884;SDS011;6510;51.362;7.370;2023-07-13T03:10:34;0.00;;;0.00;;
12884;SDS011;6510;51.362;7.370;2023-07-13T03:13:00;0.00;;;0.00;;
12884;SDS011;6510;51.362;7.370;2023-07-13T03:15:27;0.00;;;0.00;;
12884;SDS011;6510;51.362;7.370;2023-07-13T03:17:52;0.00;;;0.00;;
12884;SDS011;6510;51.362;7.370;2023-07-13T03:20:18;0.00;;;0.00;;
12884;SDS011;6510;51.362;7.370;2023-07-13T03:22:44;0.10;;;0.10;;
12884;SDS011;6510;51.362;7.370;2023-07-13T03:25:10;0.00;;;0.00;;
12884;SDS011;6510;51.362;7.370;2023-07-13T03:27:36;0.00;;;0.00;;
12884;SDS011;6510;51.362;7.370;2023-07-13T03:30:02;0.00;;;0.00;;
12884;SDS011;6510;51.362;7.370;2023-07-13T03:32:29;0.00;;;0.00;;
12884;SDS011;6510;51.362;7.370;2023-07-13T03:34:54;0.10;;;0.10;;
12884;SDS011;6510;51.362;7.370;2023-07-13T03:37:20;0.00;;;0.00;;
12884;SDS011;6510;51.362;7.370;2023-07-13T03:39:46;0.00;;;0.00;;
12884;SDS011;6510;51.362;7.370;2023-07-13T03:42:12;0.00;;;0.00;;
12884;SDS011;6510;51.362;7.370;2023-07-13T03:44:38;0.00;;;0.00;;
12884;SDS011;6510;51.362;7.370;2023-07-13T03:47:05;0.00;;;0.00;;
12884;SDS011;6510;51.362;7.370;2023-07-13T03:49:31;0.00;;;0.00;;
12884;SDS011;6510;51.362;7.370;2023-07-13T03:51:57;0.03;;;0.03;;
12884;SDS011;6510;51.362;7.370;2023-07-13T03:54:23;0.03;;;0.03;;
12884;SDS011;6510;51.362;7.370;2023-07-13T03:56:48;0.00;;;0.00;;
12884;SDS011;6510;51.362;7.370;2023-07-13T03:59:14;0.00;;;0.00;;
12884;SDS011;6510;51.362;7.370;2023-07-13T04:01:40;0.00;;;0.00;;
12884;SDS011;6510;51.362;7.370;2023-07-13T04:04:05;0.00;;;0.00;;
12884;SDS011;6510;51.362;7.370;2023-07-13T04:06:31;0.00;;;0.00;;
12884;SDS011;6510;51.362;7.370;2023-07-13T04:08:58;0.00;;;0.00;;
12884;SDS011;6510;51.362;7.370;2023-07-13T04:11:26;0.00;;;0.00;;
12884;SDS011;6510;51.362;7.370;2023-07-13T04:13:54;0.00;;;0.00;;
12884;SDS011;6510;51.362;7.370;2023-07-13T04:16:20;0.00;;;0.00;;
12884;SDS011;6510;51.362;7.370;2023-07-13T04:18:46;0.00;;;0.00;;
12884;SDS011;6510;51.362;7.370;2023-07-13T04:21:13;0.00;;;0.00;;
12884;SDS011;6510;51.362;7.370;2023-07-13T04:23:39;0.10;;;0.10;;
12884;SDS011;6510;51.362;7.370;2023-07-13T04:26:11;0.00;;;0.00;;
12884;SDS011;6510;51.362;7.370;2023-07-13T04:28:40;0.00;;;0.00;;
12884;SDS011;6510;51.362;7.370;2023-07-13T04:31:05;0.00;;;0.00;;
12884;SDS011;6510;51.362;7.370;2023-07-13T04:33:31;0.00;;;0.00;;
12884;SDS011;6510;51.362;7.370;2023-07-13T04:35:57;0.00;;;0.00;;
12884;SDS011;6510;51.362;7.370;2023-07-13T04:38:23;0.00;;;0.00;;
12884;SDS011;6510;51.362;7.370;2023-07-13T04:40:53;0.10;;;0.10;;
12884;SDS011;6510;51.362;7.370;2023-07-13T04:43:24;0.00;;;0.00;;
12884;SDS011;6510;51.362;7.370;2023-07-13T04:45:51;0.00;;;0.00;;
12884;SDS011;6510;51.362;7.370;2023-07-13T04:48:17;0.00;;;0.00;;
12884;SDS011;6510;51.362;7.370;2023-07-13T04:50:44;0.10;;;0.10;;
12884;SDS011;6510;51.362;7.370;2023-07-13T04:53:10;0.10;;;0.10;;
12884;SDS011;6510;51.362;7.370;2023-07-13T04:55:36;0.10;;;0.10;;
12884;SDS011;6510;51.362;7.370;2023-07-13T04:58:02;0.10;;;0.10;;
12884;SDS011;6510;51.362;7.370;2023-07-13T05:00:30;0.10;;;0.10;;
12884;SDS011;6510;51.362;7.370;2023-07-13T05:02:56;0.10;;;0.10;;
12884;SDS011;6510;51.362;7.370;2023-07-13T05:05:23;0.00;;;0.00;;
12884;SDS011;6510;51.362;7.370;2023-07-13T05:07:49;0.00;;;0.00;;
12884;SDS011;6510;51.362;7.370;2023-07-13T05:10:15;0.00;;;0.00;;
12884;SDS011;6510;51.362;7.370;2023-07-13T05:12:41;0.10;;;0.10;;
12884;SDS011;6510;51.362;7.370;2023-07-13T05:15:07;0.00;;;0.00;;
12884;SDS011;6510;51.362;7.370;2023-07-13T05:17:32;0.10;;;0.10;;
12884;SDS011;6510;51.362;7.370;2023-07-13T05:19:58;0.00;;;0.00;;
12884;SDS011;6510;51.362;7.370;2023-07-13T05:22:24;0.10;;;0.10;;
12884;SDS011;6510;51.362;7.370;2023-07-13T05:24:50;0.10;;;0.10;;
12884;SDS011;6510;51.362;7.370;2023-07-13T05:27:15;0.00;;;0.00;;
12884;SDS011;6510;51.362;7.370;2023-07-13T05:29:41;0.00;;;0.00;;
12884;SDS011;6510;51.362;7.370;2023-07-13T05:32:06;0.10;;;0.10;;
12884;SDS011;6510;51.362;7.370;2023-07-13T05:34:32;0.10;;;0.10;;
12884;SDS011;6510;51.362;7.370;2023-07-13T05:36:58;0.10;;;0.10;;
12884;SDS011;6510;51.362;7.370;2023-07-13T05:39:23;0.10;;;0.10;;
12884;SDS011;6510;51.362;7.370;2023-07-13T05:41:49;0.00;;;0.00;;
12884;SDS011;6510;51.362;7.370;2023-07-13T05:44:15;0.00;;;0.00;;
12884;SDS011;6510;51.362;7.370;2023-07-13T05:46:41;0.00;;;0.00;;
12884;SDS011;6510;51.362;7.370;2023-07-13T05:49:06;0.10;;;0.10;;
12884;SDS011;6510;51.362;7.370;2023-07-13T05:51:32;0.10;;;0.10;;
12884;SDS011;6510;51.362;7.370;2023-07-13T05:53:57;0.00;;;0.00;;
12884;SDS011;6510;51.362;7.370;2023-07-13T05:56:23;0.10;;;0.10;;
12884;SDS011;6510;51.362;7.370;2023-07-13T05:58:50;0.08;;;0.08;;
12884;SDS011;6510;51.362;7.370;2023-07-13T06:01:16;0.10;;;0.10;;
12884;SDS011;6510;51.362;7.370;2023-07-13T06:03:42;0.10;;;0.10;;
12884;SDS011;6510;51.362;7.370;2023-07-13T06:06:08;0.10;;;0.10;;
12884;SDS011;6510;51.362;7.370;2023-07-13T06:08:35;0.10;;;0.10;;
12884;SDS011;6510;51.362;7.370;2023-07-13T06:11:02;0.10;;;0.10;;
12884;SDS011;6510;51.362;7.370;2023-07-13T06:13:29;0.10;;;0.10;;
12884;SDS011;6510;51.362;7.370;2023-07-13T06:15:54;0.03;;;0.03;;
12884;SDS011;6510;51.362;7.370;2023-07-13T06:18:20;0.10;;;0.10;;
12884;SDS011;6510;51.362;7.370;2023-07-13T06:20:45;0.10;;;0.10;;
12884;SDS011;6510;51.362;7.370;2023-07-13T06:23:11;0.10;;;0.10;;
12884;SDS011;6510;51.362;7.370;2023-07-13T06:25:36;0.10;;;0.10;;
12884;SDS011;6510;51.362;7.370;2023-07-13T06:28:02;0.10;;;0.10;;
12884;SDS011;6510;51.362;7.370;2023-07-13T06:30:27;0.05;;;0.05;;
12884;SDS011;6510;51.362;7.370;2023-07-13T06:32:53;0.10;;;0.10;;
12884;SDS011;6510;51.362;7.370;2023-07-13T06:35:19;0.10;;;0.10;;
12884;SDS011;6510;51.362;7.370;2023-07-13T06:37:45;0.10;;;0.10;;
12884;SDS011;6510;51.362;7.370;2023-07-13T06:40:12;0.10;;;0.10;;
12884;SDS011;6510;51.362;7.370;2023-07-13T06:42:37;0.00;;;0.00;;
12884;SDS011;6510;51.362;7.370;2023-07-13T06:45:03;0.00;;;0.00;;
12884;SDS011;6510;51.362;7.370;2023-07-13T06:47:29;0.10;;;0.10;;
12884;SDS011;6510;51.362;7.370;2023-07-13T06:49:55;0.10;;;0.10;;
12884;SDS011;6510;51.362;7.370;2023-07-13T06:52:21;0.10;;;0.10;;
12884;SDS011;6510;51.362;7.370;2023-07-13T06:54:46;0.10;;;0.10;;
12884;SDS011;6510;51.362;7.370;2023-07-13T06:57:12;0.10;;;0.10;;
12884;SDS011;6510;51.362;7.370;2023-07-13T06:59:37;0.10;;;0.10;;
12884;SDS011;6510;51.362;7.370;2023-07-13T07:02:03;0.10;;;0.10;;
12884;SDS011;6510;51.362;7.370;2023-07-13T07:04:29;0.10;;;0.10;;
12884;SDS011;6510;51.362;7.370;2023-07-13T07:06:55;0.15;;;0.15;;
12884;SDS011;6510;51.362;7.370;2023-07-13T07:09:20;0.10;;;0.10;;
12884;SDS011;6510;51.362;7.370;2023-07-13T07:11:46;0.10;;;0.10;;
12884;SDS011;6510;51.362;7.370;2023-07-13T07:14:12;0.10;;;0.10;;
12884;SDS011;6510;51.362;7.370;2023-07-13T07:16:37;0.10;;;0.10;;
12884;SDS011;6510;51.362;7.370;2023-07-13T07:19:03;0.10;;;0.10;;
12884;SDS011;6510;51.362;7.370;2023-07-13T07:21:28;0.10;;;0.10;;
12884;SDS011;6510;51.362;7.370;2023-07-13T07:23:56;0.10;;;0.10;;
12884;SDS011;6510;51.362;7.370;2023-07-13T07:26:22;0.20;;;0.20;;
12884;SDS011;6510;51.362;7.370;2023-07-13T07:28:47;0.10;;;0.10;;
12884;SDS011;6510;51.362;7.370;2023-07-13T07:31:13;0.10;;;0.10;;
12884;SDS011;6510;51.362;7.370;2023-07-13T07:33:39;0.17;;;0.17;;
12884;SDS011;6510;51.362;7.370;2023-07-13T07:36:04;0.10;;;0.10;;
12884;SDS011;6510;51.362;7.370;2023-07-13T07:38:36;0.10;;;0.10;;
12884;SDS011;6510;51.362;7.370;2023-07-13T07:41:11;0.10;;;0.10;;
12884;SDS011;6510;51.362;7.370;2023-07-13T07:43:37;0.13;;;0.13;;
12884;SDS011;6510;51.362;7.370;2023-07-13T07:46:03;0.20;;;0.20;;
12884;SDS011;6510;51.362;7.370;2023-07-13T07:48:29;0.30;;;0.30;;
12884;SDS011;6510;51.362;7.370;2023-07-13T07:50:55;0.30;;;0.30;;
12884;SDS011;6510;51.362;7.370;2023-07-13T07:53:21;0.20;;;0.20;;
12884;SDS011;6510;51.362;7.370;2023-07-13T07:55:46;0.30;;;0.30;;
12884;SDS011;6510;51.362;7.370;2023-07-13T07:58:12;0.20;;;0.20;;
12884;SDS011;6510;51.362;7.370;2023-07-13T08:00:38;0.20;;;0.20;;
12884;SDS011;6510;51.362;7.370;2023-07-13T08:03:05;0.20;;;0.20;;
12884;SDS011;6510;51.362;7.370;2023-07-13T08:05:31;0.20;;;0.20;;
12884;SDS011;6510;51.362;7.370;2023-07-13T08:07:56;0.10;;;0.10;;
12884;SDS011;6510;51.362;7.370;2023-07-13T08:10:22;0.10;;;0.10;;
12884;SDS011;6510;51.362;7.370;2023-07-13T08:12:48;0.20;;;0.20;;
12884;SDS011;6510;51.362;7.370;2023-07-13T08:15:14;0.20;;;0.20;;
12884;SDS011;6510;51.362;7.370;2023-07-13T08:17:41;0.20;;;0.20;;
12884;SDS011;6510;51.362;7.370;2023-07-13T08:20:07;0.20;;;0.20;;
12884;SDS011;6510;51.362;7.370;2023-07-13T08:22:35;0.10;;;0.10;;
12884;SDS011;6510;51.362;7.370;2023-07-13T08:25:01;0.20;;;0.20;;
12884;SDS011;6510;51.362;7.370;2023-07-13T08:27:27;0.10;;;0.10;;
12884;SDS011;6510;51.362;7.370;2023-07-13T08:29:54;0.20;;;0.20;;
12884;SDS011;6510;51.362;7.370;2023-07-13T08:32:20;0.15;;;0.15;;
12884;SDS011;6510;51.362;7.370;2023-07-13T08:34:47;0.13;;;0.13;;
12884;SDS011;6510;51.362;7.370;2023-07-13T08:37:13;0.13;;;0.13;;
12884;SDS011;6510;51.362;7.370;2023-07-13T08:39:39;0.10;;;0.10;;
12884;SDS011;6510;51.362;7.370;2023-07-13T08:42:07;0.10;;;0.10;;
12884;SDS011;6510;51.362;7.370;2023-07-13T08:44:43;0.10;;;0.10;;
12884;SDS011;6510;51.362;7.370;2023-07-13T08:47:22;0.10;;;0.10;;
12884;SDS011;6510;51.362;7.370;2023-07-13T08:49:49;0.10;;;0.10;;
12884;SDS011;6510;51.362;7.370;2023-07-13T08:55:17;0.20;;;0.20;;
12884;SDS011;6510;51.362;7.370;2023-07-13T08:57:48;0.20;;;0.20;;
12884;SDS011;6510;51.362;7.370;2023-07-13T09:00:19;0.20;;;0.20;;
12884;SDS011;6510;51.362;7.370;2023-07-13T09:02:46;0.20;;;0.20;;
12884;SDS011;6510;51.362;7.370;2023-07-13T09:05:33;0.20;;;0.20;;
12884;SDS011;6510;51.362;7.370;2023-07-13T09:11:00;0.20;;;0.20;;
12884;SDS011;6510;51.362;7.370;2023-07-13T09:14:03;0.20;;;0.20;;
12884;SDS011;6510;51.362;7.370;2023-07-13T09:16:47;0.20;;;0.20;;
12884;SDS011;6510;51.362;7.370;2023-07-13T09:19:18;0.17;;;0.17;;
12884;SDS011;6510;51.362;7.370;2023-07-13T09:21:48;0.20;;;0.20;;
12884;SDS011;6510;51.362;7.370;2023-07-13T09:27:26;0.20;;;0.20;;
12884;SDS011;6510;51.362;7.370;2023-07-13T09:30:09;0.10;;;0.10;;
12884;SDS011;6510;51.362;7.370;2023-07-13T09:32:49;0.20;;;0.20;;
12884;SDS011;6510;51.362;7.370;2023-07-13T09:35:19;0.20;;;0.20;;
12884;SDS011;6510;51.362;7.370;2023-07-13T09:37:49;0.20;;;0.20;;
12884;SDS011;6510;51.362;7.370;2023-07-13T09:40:26;0.20;;;0.20;;
12884;SDS011;6510;51.362;7.370;2023-07-13T09:42:58;0.20;;;0.20;;
12884;SDS011;6510;51.362;7.370;2023-07-13T09:45:28;0.20;;;0.20;;
12884;SDS011;6510;51.362;7.370;2023-07-13T09:47:59;0.20;;;0.20;;
12884;SDS011;6510;51.362;7.370;2023-07-13T09:50:28;0.28;;;0.28;;
12884;SDS011;6510;51.362;7.370;2023-07-13T09:52:54;0.20;;;0.20;;
12884;SDS011;6510;51.362;7.370;2023-07-13T09:55:25;0.20;;;0.20;;
12884;SDS011;6510;51.362;7.370;2023-07-13T09:57:56;0.20;;;0.20;;
12884;SDS011;6510;51.362;7.370;2023-07-13T10:00:26;0.20;;;0.20;;
12884;SDS011;6510;51.362;7.370;2023-07-13T10:03:05;0.17;;;0.17;;
12884;SDS011;6510;51.362;7.370;2023-07-13T10:05:43;0.15;;;0.15;;
12884;SDS011;6510;51.362;7.370;2023-07-13T10:08:17;0.20;;;0.20;;
12884;SDS011;6510;51.362;7.370;2023-07-13T10:10:44;0.20;;;0.20;;
12884;SDS011;6510;51.362;7.370;2023-07-13T10:13:26;0.20;;;0.20;;
12884;SDS011;6510;51.362;7.370;2023-07-13T10:15:59;0.20;;;0.20;;
12884;SDS011;6510;51.362;7.370;2023-07-13T10:18:25;0.20;;;0.20;;
12884;SDS011;6510;51.362;7.370;2023-07-13T10:21:07;0.20;;;0.20;;
12884;SDS011;6510;51.362;7.370;2023-07-13T10:23:37;0.25;;;0.25;;
12884;SDS011;6510;51.362;7.370;2023-07-13T10:26:02;0.20;;;0.20;;
12884;SDS011;6510;51.362;7.370;2023-07-13T10:28:31;0.28;;;0.28;;
12884;SDS011;6510;51.362;7.370;2023-07-13T10:31:01;0.20;;;0.20;;
12884;SDS011;6510;51.362;7.370;2023-07-13T10:33:30;0.20;;;0.20;;
12884;SDS011;6510;51.362;7.370;2023-07-13T10:38:54;0.30;;;0.30;;
12884;SDS011;6510;51.362;7.370;2023-07-13T10:41:23;0.30;;;0.30;;
12884;SDS011;6510;51.362;7.370;2023-07-13T10:43:51;0.30;;;0.30;;
12884;SDS011;6510;51.362;7.370;2023-07-13T10:46:19;0.28;;;0.28;;
12884;SDS011;6510;51.362;7.370;2023-07-13T10:48:51;0.30;;;0.30;;
12884;SDS011;6510;51.362;7.370;2023-07-13T10:51:22;0.20;;;0.20;;
12884;SDS011;6510;51.362;7.370;2023-07-13T10:53:48;0.20;;;0.20;;
12884;SDS011;6510;51.362;7.370;2023-07-13T10:56:36;0.20;;;0.20;;
12884;SDS011;6510;51.362;7.370;2023-07-13T11:04:19;0.30;;;0.30;;
12884;SDS011;6510;51.362;7.370;2023-07-13T11:06:47;0.20;;;0.20;;
12884;SDS011;6510;51.362;7.370;2023-07-13T11:12:01;0.30;;;0.30;;
12884;SDS011;6510;51.362;7.370;2023-07-13T11:14:42;0.20;;;0.20;;
12884;SDS011;6510;51.362;7.370;2023-07-13T11:20:10;0.10;;;0.10;;
12884;SDS011;6510;51.362;7.370;2023-07-13T11:27:52;0.25;;;0.25;;
12884;SDS011;6510;51.362;7.370;2023-07-13T11:33:03;0.20;;;0.20;;
12884;SDS011;6510;51.362;7.370;2023-07-13T11:35:38;0.20;;;0.20;;
12884;SDS011;6510;51.362;7.370;2023-07-13T11:38:32;0.30;;;0.30;;
12884;SDS011;6510;51.362;7.370;2023-07-13T11:41:02;0.25;;;0.25;;
12884;SDS011;6510;51.362;7.370;2023-07-13T11:43:30;0.30;;;0.30;;
12884;SDS011;6510;51.362;7.370;2023-07-13T11:45:59;0.20;;;0.20;;
12884;SDS011;6510;51.362;7.370;2023-07-13T11:48:37;0.20;;;0.20;;
12884;SDS011;6510;51.362;7.370;2023-07-13T11:51:03;0.20;;;0.20;;
12884;SDS011;6510;51.362;7.370;2023-07-13T11:53:32;0.20;;;0.20;;
12884;SDS011;6510;51.362;7.370;2023-07-13T11:56:03;0.30;;;0.30;;
12884;SDS011;6510;51.362;7.370;2023-07-13T11:58:28;0.25;;;0.25;;
12884;SDS011;6510;51.362;7.370;2023-07-13T12:00:59;0.30;;;0.30;;
12884;SDS011;6510;51.362;7.370;2023-07-13T12:03:26;0.30;;;0.30;;
12884;SDS011;6510;51.362;7.370;2023-07-13T12:08:37;0.30;;;0.30;;
12884;SDS011;6510;51.362;7.370;2023-07-13T12:11:16;0.20;;;0.20;;
12884;SDS011;6510;51.362;7.370;2023-07-13T12:13:43;0.30;;;0.30;;
12884;SDS011;6510;51.362;7.370;2023-07-13T12:16:17;0.30;;;0.30;;
12884;SDS011;6510;51.362;7.370;2023-07-13T12:18:49;0.30;;;0.30;;
12884;SDS011;6510;51.362;7.370;2023-07-13T12:21:18;0.30;;;0.30;;
12884;SDS011;6510;51.362;7.370;2023-07-13T12:23:47;0.20;;;0.20;;
12884;SDS011;6510;51.362;7.370;2023-07-13T12:26:14;0.25;;;0.25;;
12884;SDS011;6510;51.362;7.370;2023-07-13T12:28:50;0.30;;;0.30;;
12884;SDS011;6510;51.362;7.370;2023-07-13T12:34:23;0.20;;;0.20;;
12884;SDS011;6510;51.362;7.370;2023-07-13T12:36:58;0.20;;;0.20;;
12884;SDS011;6510;51.362;7.370;2023-07-13T12:39:36;0.20;;;0.20;;
12884;SDS011;6510;51.362;7.370;2023-07-13T12:42:17;0.30;;;0.30;;
12884;SDS011;6510;51.362;7.370;2023-07-13T12:44:45;0.20;;;0.20;;
12884;SDS011;6510;51.362;7.370;2023-07-13T12:47:12;0.20;;;0.20;;
12884;SDS011;6510;51.362;7.370;2023-07-13T12:49:43;0.30;;;0.30;;
12884;SDS011;6510;51.362;7.370;2023-07-13T12:52:23;0.30;;;0.30;;
12884;SDS011;6510;51.362;7.370;2023-07-13T12:55:19;0.20;;;0.20;;
12884;SDS011;6510;51.362;7.370;2023-07-13T12:57:49;0.20;;;0.20;;
12884;SDS011;6510;51.362;7.370;2023-07-13T13:00:30;0.30;;;0.30;;
12884;SDS011;6510;51.362;7.370;2023-07-13T13:03:04;0.20;;;0.20;;
12884;SDS011;6510;51.362;7.370;2023-07-13T13:05:46;0.20;;;0.20;;
12884;SDS011;6510;51.362;7.370;2023-07-13T13:08:12;0.30;;;0.30;;
12884;SDS011;6510;51.362;7.370;2023-07-13T13:10:38;0.30;;;0.30;;
12884;SDS011;6510;51.362;7.370;2023-07-13T13:13:04;0.20;;;0.20;;
12884;SDS011;6510;51.362;7.370;2023-07-13T13:15:30;0.30;;;0.30;;
12884;SDS011;6510;51.362;7.370;2023-07-13T13:17:56;0.30;;;0.30;;
12884;SDS011;6510;51.362;7.370;2023-07-13T13:20:24;0.20;;;0.20;;
12884;SDS011;6510;51.362;7.370;2023-07-13T13:22:50;0.30;;;0.30;;
12884;SDS011;6510;51.362;7.370;2023-07-13T13:25:17;0.28;;;0.28;;
12884;SDS011;6510;51.362;7.370;2023-07-13T13:27:46;0.28;;;0.28;;
12884;SDS011;6510;51.362;7.370;2023-07-13T13:30:12;0.30;;;0.30;;
12884;SDS011;6510;51.362;7.370;2023-07-13T13:32:43;0.25;;;0.25;;
12884;SDS011;6510;51.362;7.370;2023-07-13T13:35:14;0.20;;;0.20;;
12884;SDS011;6510;51.362;7.370;2023-07-13T13:37:42;0.20;;;0.20;;
12884;SDS011;6510;51.362;7.370;2023-07-13T13:40:13;0.17;;;0.17;;
12884;SDS011;6510;51.362;7.370;2023-07-13T13:42:39;0.10;;;0.10;;
12884;SDS011;6510;51.362;7.370;2023-07-13T13:45:05;0.10;;;0.10;;
12884;SDS011;6510;51.362;7.370;2023-07-13T13:47:32;0.20;;;0.20;;
12884;SDS011;6510;51.362;7.370;2023-07-13T13:50:01;0.10;;;0.10;;
12884;SDS011;6510;51.362;7.370;2023-07-13T13:52:27;0.20;;;0.20;;
12884;SDS011;6510;51.362;7.370;2023-07-13T13:54:53;0.13;;;0.13;;
12884;SDS011;6510;51.362;7.370;2023-07-13T13:57:21;0.10;;;0.10;;
12884;SDS011;6510;51.362;7.370;2023-07-13T13:59:50;0.20;;;0.20;;
12884;SDS011;6510;51.362;7.370;2023-07-13T14:02:25;0.20;;;0.20;;
12884;SDS011;6510;51.362;7.370;2023-07-13T14:05:00;0.10;;;0.10;;
12884;SDS011;6510;51.362;7.370;2023-07-13T14:07:28;0.20;;;0.20;;
12884;SDS011;6510;51.362;7.370;2023-07-13T14:09:58;0.20;;;0.20;;
12884;SDS011;6510;51.362;7.370;2023-07-13T14:12:26;0.20;;;0.20;;
12884;SDS011;6510;51.362;7.370;2023-07-13T14:14:54;0.20;;;0.20;;
12884;SDS011;6510;51.362;7.370;2023-07-13T14:17:31;0.30;;;0.30;;
12884;SDS011;6510;51.362;7.370;2023-07-13T14:19:57;0.20;;;0.20;;
12884;SDS011;6510;51.362;7.370;2023-07-13T14:22:24;0.30;;;0.30;;
12884;SDS011;6510;51.362;7.370;2023-07-13T14:24:53;0.20;;;0.20;;
12884;SDS011;6510;51.362;7.370;2023-07-13T14:27:20;0.20;;;0.20;;
12884;SDS011;6510;51.362;7.370;2023-07-13T14:29:47;0.10;;;0.10;;
12884;SDS011;6510;51.362;7.370;2023-07-13T14:32:12;0.20;;;0.20;;
12884;SDS011;6510;51.362;7.370;2023-07-13T14:34:38;0.20;;;0.20;;
12884;SDS011;6510;51.362;7.370;2023-07-13T14:37:04;0.20;;;0.20;;
12884;SDS011;6510;51.362;7.370;2023-07-13T14:39:36;0.20;;;0.20;;
12884;SDS011;6510;51.362;7.370;2023-07-13T14:42:03;0.20;;;0.20;;
12884;SDS011;6510;51.362;7.370;2023-07-13T14:44:33;0.20;;;0.20;;
12884;SDS011;6510;51.362;7.370;2023-07-13T14:46:59;0.20;;;0.20;;
12884;SDS011;6510;51.362;7.370;2023-07-13T14:52:12;0.10;;;0.10;;
12884;SDS011;6510;51.362;7.370;2023-07-13T14:54:38;0.10;;;0.10;;
12884;SDS011;6510;51.362;7.370;2023-07-13T14:57:12;0.20;;;0.20;;
12884;SDS011;6510;51.362;7.370;2023-07-13T14:59:39;0.10;;;0.10;;
12884;SDS011;6510;51.362;7.370;2023-07-13T15:04:51;0.20;;;0.20;;
12884;SDS011;6510;51.362;7.370;2023-07-13T15:07:17;0.10;;;0.10;;
12884;SDS011;6510;51.362;7.370;2023-07-13T15:09:45;0.10;;;0.10;;
12884;SDS011;6510;51.362;7.370;2023-07-13T15:12:12;0.20;;;0.20;;
12884;SDS011;6510;51.362;7.370;2023-07-13T15:14:38;0.17;;;0.17;;
12884;SDS011;6510;51.362;7.370;2023-07-13T15:17:05;0.17;;;0.17;;
12884;SDS011;6510;51.362;7.370;2023-07-13T15:19:42;0.13;;;0.13;;
12884;SDS011;6510;51.362;7.370;2023-07-13T15:22:08;0.10;;;0.10;;
12884;SDS011;6510;51.362;7.370;2023-07-13T15:24:35;0.10;;;0.10;;
12884;SDS011;6510;51.362;7.370;2023-07-13T15:27:02;0.10;;;0.10;;
12884;SDS011;6510;51.362;7.370;2023-07-13T15:29:29;0.20;;;0.20;;
12884;SDS011;6510;51.362;7.370;2023-07-13T15:31:55;0.20;;;0.20;;
12884;SDS011;6510;51.362;7.370;2023-07-13T15:34:21;0.20;;;0.20;;
12884;SDS011;6510;51.362;7.370;2023-07-13T15:36:49;0.20;;;0.20;;
12884;SDS011;6510;51.362;7.370;2023-07-13T15:39:16;0.10;;;0.10;;
12884;SDS011;6510;51.362;7.370;2023-07-13T15:41:42;0.10;;;0.10;;
12884;SDS011;6510;51.362;7.370;2023-07-13T15:44:20;0.13;;;0.13;;
12884;SDS011;6510;51.362;7.370;2023-07-13T15:46:48;0.20;;;0.20;;
12884;SDS011;6510;51.362;7.370;2023-07-13T15:49:15;0.20;;;0.20;;
12884;SDS011;6510;51.362;7.370;2023-07-13T15:51:40;0.20;;;0.20;;
12884;SDS011;6510;51.362;7.370;2023-07-13T15:54:08;0.10;;;0.10;;